Time;durP1;ratioP1;P1;durP2;ratioP2;P2;SDS_P1;SDS_P2;PMS_P1;PMS_P2;Temp;Humidity;BMP_temperature;BMP_pressure;BME280_temperature;BME280_humidity;BME280_pressure;Samples;Min_cycle;Max_cycle;Signal;HPM_P1;HPM_P2
2021/08/14 00:01:19;;;;;;;11.10;4.03;;;;;;;;;;5032929;28;20022;-75
2021/08/14 00:03:45;;;;;;;8.85;3.28;;;;;;;;;;5033105;28;20025;-74
2021/08/14 00:06:15;;;;;;;9.00;3.50;;;;;;;;;;5032670;28;20048;-75
2021/08/14 00:08:41;;;;;;;9.98;3.45;;;;;;;;;;5031626;28;20400;-75
2021/08/14 00:11:07;;;;;;;6.65;3.17;;;;;;;;;;5032860;28;20101;-76
2021/08/14 00:13:33;;;;;;;10.38;3.13;;;;;;;;;;5032844;28;20029;-74
2021/08/14 00:15:59;;;;;;;9.70;3.60;;;;;;;;;;5032798;28;20079;-75
2021/08/14 00:18:25;;;;;;;9.98;3.33;;;;;;;;;;5032721;28;20033;-75
2021/08/14 00:20:51;;;;;;;9.95;3.25;;;;;;;;;;5033020;28;20049;-75
2021/08/14 00:23:17;;;;;;;6.93;3.47;;;;;;;;;;5033234;28;20030;-76
2021/08/14 00:25:43;;;;;;;8.88;3.17;;;;;;;;;;5032992;28;20029;-76
2021/08/14 00:28:09;;;;;;;8.50;3.63;;;;;;;;;;5032654;28;20075;-75
2021/08/14 00:30:35;;;;;;;7.07;2.80;;;;;;;;;;5032944;28;20025;-75
2021/08/14 00:33:01;;;;;;;8.65;3.20;;;;;;;;;;5032668;28;20532;-74
2021/08/14 00:35:27;;;;;;;8.35;3.92;;;;;;;;;;5032637;28;20104;-75
2021/08/14 00:37:54;;;;;;;8.93;3.55;;;;;;;;;;5033272;28;20033;-75
2021/08/14 00:40:20;;;;;;;5.78;2.67;;;;;;;;;;5036235;28;20022;-76
2021/08/14 00:42:46;;;;;;;9.98;3.58;;;;;;;;;;5036417;28;20025;-75
2021/08/14 00:45:12;;;;;;;11.45;3.58;;;;;;;;;;5036087;28;20395;-75
2021/08/14 00:47:41;;;;;;;6.22;3.30;;;;;;;;;;5036636;28;20030;-75
2021/08/14 00:50:08;;;;;;;8.18;3.25;;;;;;;;;;5034805;28;20080;-75
2021/08/14 00:52:34;;;;;;;8.02;3.30;;;;;;;;;;5035991;28;20025;-75
2021/08/14 00:55:00;;;;;;;9.75;3.53;;;;;;;;;;5034633;28;20025;-75
2021/08/14 00:57:26;;;;;;;11.95;4.13;;;;;;;;;;5035777;28;20026;-75
2021/08/14 00:59:52;;;;;;;8.52;3.28;;;;;;;;;;5036079;28;20040;-75
2021/08/14 01:02:19;;;;;;;11.07;3.65;;;;;;;;;;5035682;28;20030;-75
2021/08/14 01:04:51;;;;;;;8.80;3.67;;;;;;;;;;5035725;28;20026;-75
2021/08/14 01:07:18;;;;;;;9.55;3.40;;;;;;;;;;5035492;28;20057;-76
2021/08/14 01:09:46;;;;;;;9.27;3.40;;;;;;;;;;5035835;28;20053;-75
2021/08/14 01:12:16;;;;;;;8.13;3.50;;;;;;;;;;5035888;28;20018;-74
2021/08/14 01:14:44;;;;;;;7.55;2.88;;;;;;;;;;5035598;28;20389;-75
2021/08/14 01:17:10;;;;;;;6.78;3.85;;;;;;;;;;5035500;28;20401;-73
2021/08/14 01:19:36;;;;;;;8.82;3.42;;;;;;;;;;5035378;28;20025;-75
2021/08/14 01:22:03;;;;;;;10.02;3.92;;;;;;;;;;5035415;28;20029;-75
2021/08/14 01:24:29;;;;;;;8.23;3.45;;;;;;;;;;5035421;28;20018;-76
2021/08/14 01:26:58;;;;;;;6.32;3.17;;;;;;;;;;5035323;28;20022;-75
2021/08/14 01:29:24;;;;;;;10.88;4.05;;;;;;;;;;5035541;28;20029;-74
2021/08/14 01:31:50;;;;;;;6.85;3.40;;;;;;;;;;5035239;28;20131;-75
2021/08/14 01:34:18;;;;;;;9.68;3.80;;;;;;;;;;5035485;28;20061;-75
2021/08/14 01:36:46;;;;;;;7.15;3.35;;;;;;;;;;5035401;28;20037;-74
2021/08/14 01:39:14;;;;;;;8.80;3.83;;;;;;;;;;5035271;28;20030;-75
2021/08/14 01:41:52;;;;;;;8.90;3.80;;;;;;;;;;5035051;28;20024;-75
2021/08/14 01:44:18;;;;;;;9.80;3.67;;;;;;;;;;5035548;28;20033;-74
2021/08/14 01:46:44;;;;;;;9.82;3.60;;;;;;;;;;5034928;28;20045;-75
2021/08/14 01:49:10;;;;;;;9.48;3.70;;;;;;;;;;5034821;28;20115;-75
2021/08/14 01:51:37;;;;;;;9.40;3.67;;;;;;;;;;5034848;28;20025;-75
2021/08/14 01:54:04;;;;;;;7.00;3.78;;;;;;;;;;5034837;28;20474;-75
2021/08/14 01:56:31;;;;;;;8.43;3.90;;;;;;;;;;5034739;28;20408;-75
2021/08/14 01:58:57;;;;;;;9.13;3.95;;;;;;;;;;5034894;28;20034;-74
2021/08/14 02:01:23;;;;;;;7.80;4.05;;;;;;;;;;5033417;28;20022;-75
2021/08/14 02:03:49;;;;;;;9.45;4.28;;;;;;;;;;5034531;28;20022;-75
2021/08/14 02:06:16;;;;;;;9.07;3.88;;;;;;;;;;5034562;28;20525;-75
2021/08/14 02:08:42;;;;;;;9.88;3.78;;;;;;;;;;5034506;28;20429;-75
2021/08/14 02:11:15;;;;;;;8.18;3.85;;;;;;;;;;5033127;28;20088;-75
2021/08/14 02:13:42;;;;;;;8.75;4.05;;;;;;;;;;5034927;28;20021;-75
2021/08/14 02:16:08;;;;;;;9.35;4.00;;;;;;;;;;5034626;28;20029;-74
2021/08/14 02:18:34;;;;;;;8.95;3.65;;;;;;;;;;5034247;28;20021;-75
2021/08/14 02:21:00;;;;;;;8.05;3.88;;;;;;;;;;5034530;28;20028;-73
2021/08/14 02:23:26;;;;;;;8.35;3.75;;;;;;;;;;5034508;28;20381;-75
2021/08/14 02:25:52;;;;;;;9.15;3.40;;;;;;;;;;5034155;28;20025;-75
2021/08/14 02:28:18;;;;;;;8.43;3.30;;;;;;;;;;5034450;28;20025;-74
2021/08/14 02:30:44;;;;;;;8.57;3.58;;;;;;;;;;5032808;28;20034;-75
2021/08/14 02:33:10;;;;;;;7.22;3.75;;;;;;;;;;5034084;28;20489;-74
2021/08/14 02:35:36;;;;;;;9.65;3.80;;;;;;;;;;5034037;28;20026;-75
2021/08/14 02:38:02;;;;;;;10.70;3.75;;;;;;;;;;5034452;28;20080;-75
2021/08/14 02:40:28;;;;;;;11.45;4.40;;;;;;;;;;5033886;28;20029;-75
2021/08/14 02:42:54;;;;;;;8.80;3.58;;;;;;;;;;5033923;28;20024;-75
2021/08/14 02:45:20;;;;;;;6.80;3.40;;;;;;;;;;5033861;28;20460;-74
2021/08/14 02:47:46;;;;;;;10.60;3.88;;;;;;;;;;5033787;28;20032;-75
2021/08/14 02:50:12;;;;;;;7.20;3.67;;;;;;;;;;5032509;28;20079;-75
2021/08/14 02:52:39;;;;;;;9.68;4.00;;;;;;;;;;5033976;28;20032;-75
2021/08/14 02:55:05;;;;;;;8.60;3.67;;;;;;;;;;5033695;28;20486;-75
2021/08/14 02:57:31;;;;;;;8.05;3.75;;;;;;;;;;5033563;28;20152;-75
2021/08/14 02:59:57;;;;;;;7.57;3.58;;;;;;;;;;5033860;28;20104;-74
2021/08/14 03:02:23;;;;;;;10.35;4.53;;;;;;;;;;5033092;28;20026;-75
2021/08/14 03:04:49;;;;;;;8.85;4.07;;;;;;;;;;5034047;28;20025;-75
2021/08/14 03:07:15;;;;;;;10.63;3.25;;;;;;;;;;5033273;28;20049;-75
2021/08/14 03:09:41;;;;;;;8.63;3.42;;;;;;;;;;5033491;28;20033;-75
2021/08/14 03:12:07;;;;;;;12.32;3.65;;;;;;;;;;5033712;28;20038;-75
2021/08/14 03:14:33;;;;;;;12.38;3.88;;;;;;;;;;5033418;28;20033;-74
2021/08/14 03:16:59;;;;;;;9.05;3.72;;;;;;;;;;5033341;28;20458;-74
2021/08/14 03:19:25;;;;;;;8.75;4.00;;;;;;;;;;5033285;28;20039;-75
2021/08/14 03:21:51;;;;;;;8.57;3.65;;;;;;;;;;5033381;28;20025;-75
2021/08/14 03:24:18;;;;;;;8.63;4.05;;;;;;;;;;5033291;28;20528;-74
2021/08/14 03:26:44;;;;;;;6.75;3.03;;;;;;;;;;5033272;28;20108;-75
2021/08/14 03:29:10;;;;;;;13.00;3.53;;;;;;;;;;5033285;28;20441;-74
2021/08/14 03:31:36;;;;;;;6.55;3.10;;;;;;;;;;5033205;28;20032;-75
2021/08/14 03:34:02;;;;;;;11.45;3.45;;;;;;;;;;5033243;28;20029;-75
2021/08/14 03:36:28;;;;;;;9.45;3.67;;;;;;;;;;5033173;28;20612;-75
2021/08/14 03:38:54;;;;;;;9.25;3.45;;;;;;;;;;5033085;28;20029;-75
2021/08/14 03:41:20;;;;;;;8.07;3.22;;;;;;;;;;5033424;28;20056;-75
2021/08/14 03:43:46;;;;;;;8.82;4.07;;;;;;;;;;5033119;28;20052;-75
2021/08/14 03:46:12;;;;;;;8.63;3.63;;;;;;;;;;5033341;28;20029;-75
2021/08/14 03:48:38;;;;;;;7.40;3.17;;;;;;;;;;5033078;28;20124;-75
2021/08/14 03:51:04;;;;;;;9.02;3.35;;;;;;;;;;5033346;28;20025;-75
2021/08/14 03:53:31;;;;;;;10.98;3.80;;;;;;;;;;5033576;28;20061;-74
2021/08/14 03:55:57;;;;;;;10.23;3.78;;;;;;;;;;5033295;28;20029;-75
2021/08/14 03:58:23;;;;;;;9.07;3.63;;;;;;;;;;5032902;28;20025;-75
2021/08/14 04:00:49;;;;;;;9.15;3.80;;;;;;;;;;5032956;28;20025;-75
2021/08/14 04:03:15;;;;;;;12.90;4.22;;;;;;;;;;5032829;28;20482;-75
2021/08/14 04:05:41;;;;;;;8.77;4.07;;;;;;;;;;5032702;28;20056;-75
2021/08/14 04:08:07;;;;;;;9.80;3.67;;;;;;;;;;5031387;28;20124;-75
2021/08/14 04:10:33;;;;;;;8.70;3.58;;;;;;;;;;5033133;28;20381;-75
2021/08/14 04:12:59;;;;;;;14.95;3.95;;;;;;;;;;5033743;28;20029;-75
2021/08/14 04:15:25;;;;;;;13.02;4.82;;;;;;;;;;5036644;28;20021;-74
2021/08/14 04:17:51;;;;;;;16.55;5.50;;;;;;;;;;5036530;28;20392;-75
2021/08/14 04:20:17;;;;;;;14.65;5.95;;;;;;;;;;5036571;28;20026;-75
2021/08/14 04:22:43;;;;;;;15.13;5.40;;;;;;;;;;5036535;28;20025;-75
2021/08/14 04:25:09;;;;;;;13.52;5.10;;;;;;;;;;5036780;28;20025;-75
2021/08/14 04:27:36;;;;;;;12.18;4.82;;;;;;;;;;5036532;28;20028;-75
2021/08/14 04:30:02;;;;;;;10.98;4.95;;;;;;;;;;5036724;28;20029;-74
2021/08/14 04:32:32;;;;;;;14.70;5.07;;;;;;;;;;5036687;28;20400;-75
2021/08/14 04:34:58;;;;;;;11.43;4.83;;;;;;;;;;5036403;28;20166;-75
2021/08/14 04:37:24;;;;;;;10.27;4.97;;;;;;;;;;5036555;28;20263;-74
2021/08/14 04:39:50;;;;;;;13.55;5.30;;;;;;;;;;5036095;28;20497;-74
2021/08/14 04:42:16;;;;;;;9.25;4.40;;;;;;;;;;5036187;28;20025;-75
2021/08/14 04:44:42;;;;;;;10.07;3.72;;;;;;;;;;5036130;28;20445;-74
2021/08/14 04:47:08;;;;;;;8.60;3.95;;;;;;;;;;5036363;28;20167;-74
2021/08/14 04:49:34;;;;;;;9.25;3.83;;;;;;;;;;5036033;28;20029;-75
2021/08/14 04:52:00;;;;;;;13.35;4.10;;;;;;;;;;5035969;28;20025;-75
2021/08/14 04:54:26;;;;;;;9.27;4.13;;;;;;;;;;5035970;28;20492;-75
2021/08/14 04:56:52;;;;;;;14.25;4.53;;;;;;;;;;5035907;28;20052;-74
2021/08/14 04:59:18;;;;;;;13.07;4.38;;;;;;;;;;5036092;28;20038;-74
2021/08/14 05:01:44;;;;;;;7.68;3.72;;;;;;;;;;5035847;28;20390;-75
2021/08/14 05:04:10;;;;;;;13.23;4.32;;;;;;;;;;5035676;28;20064;-75
2021/08/14 05:06:38;;;;;;;11.93;4.57;;;;;;;;;;5035541;28;20120;-75
2021/08/14 05:09:04;;;;;;;20.58;4.30;;;;;;;;;;5035705;28;20029;-75
2021/08/14 05:11:30;;;;;;;10.98;4.63;;;;;;;;;;5035612;28;20021;-75
2021/08/14 05:13:56;;;;;;;8.93;3.60;;;;;;;;;;5035846;28;20390;-75
2021/08/14 05:16:25;;;;;;;10.05;4.75;;;;;;;;;;5035567;28;20033;-75
2021/08/14 05:18:51;;;;;;;12.50;3.90;;;;;;;;;;5035718;28;20060;-75
2021/08/14 05:21:17;;;;;;;14.98;5.60;;;;;;;;;;5035456;28;20076;-74
2021/08/14 05:23:43;;;;;;;24.63;6.35;;;;;;;;;;5035024;28;20036;-75
2021/08/14 05:26:09;;;;;;;29.63;7.40;;;;;;;;;;5035605;28;20022;-75
2021/08/14 05:28:35;;;;;;;17.45;5.28;;;;;;;;;;5035354;28;20064;-75
2021/08/14 05:31:01;;;;;;;14.60;5.18;;;;;;;;;;5035295;28;20056;-75
2021/08/14 05:33:27;;;;;;;14.75;5.10;;;;;;;;;;5035233;28;20038;-75
2021/08/14 05:35:53;;;;;;;18.23;6.50;;;;;;;;;;5033890;28;20029;-75
2021/08/14 05:38:19;;;;;;;34.70;6.13;;;;;;;;;;5035046;28;20032;-75
2021/08/14 05:40:45;;;;;;;14.63;6.40;;;;;;;;;;5035068;28;20029;-75
2021/08/14 05:43:11;;;;;;;17.70;5.68;;;;;;;;;;5035328;28;20030;-75
2021/08/14 05:45:38;;;;;;;19.70;6.32;;;;;;;;;;5035226;28;20528;-75
2021/08/14 05:48:04;;;;;;;13.55;5.75;;;;;;;;;;5034961;28;20033;-74
2021/08/14 05:50:31;;;;;;;16.75;6.85;;;;;;;;;;5034915;28;20035;-75
2021/08/14 05:52:57;;;;;;;14.52;6.22;;;;;;;;;;5035397;28;20033;-74
2021/08/14 05:55:23;;;;;;;13.40;5.88;;;;;;;;;;5034835;28;20028;-74
2021/08/14 05:57:49;;;;;;;12.98;5.63;;;;;;;;;;5034690;28;20409;-75
2021/08/14 06:00:16;;;;;;;15.02;5.90;;;;;;;;;;5034738;28;20096;-75
2021/08/14 06:02:42;;;;;;;15.85;6.18;;;;;;;;;;5034928;28;20025;-73
2021/08/14 06:05:08;;;;;;;13.27;6.00;;;;;;;;;;5033382;28;20018;-75
2021/08/14 06:07:34;;;;;;;14.25;5.68;;;;;;;;;;5034433;28;20056;-74
2021/08/14 06:10:00;;;;;;;17.33;6.10;;;;;;;;;;5034896;28;20021;-75
2021/08/14 06:12:26;;;;;;;11.73;5.68;;;;;;;;;;5034522;28;20026;-75
2021/08/14 06:14:52;;;;;;;10.75;5.25;;;;;;;;;;5035038;28;20017;-75
2021/08/14 06:17:18;;;;;;;19.95;5.75;;;;;;;;;;5034965;28;20025;-74
2021/08/14 06:19:44;;;;;;;11.13;5.20;;;;;;;;;;5034545;28;20030;-75
2021/08/14 06:22:10;;;;;;;10.75;5.22;;;;;;;;;;5034579;28;20109;-75
2021/08/14 06:24:36;;;;;;;9.25;5.15;;;;;;;;;;5034295;28;20363;-75
2021/08/14 06:27:02;;;;;;;12.55;5.38;;;;;;;;;;5034259;28;20030;-75
2021/08/14 06:29:28;;;;;;;10.63;5.15;;;;;;;;;;5034180;28;20112;-74
2021/08/14 06:31:54;;;;;;;11.13;4.97;;;;;;;;;;5034147;28;20057;-75
2021/08/14 06:34:20;;;;;;;9.73;4.82;;;;;;;;;;5034079;28;20078;-75
2021/08/14 06:36:47;;;;;;;11.77;5.57;;;;;;;;;;5033570;28;20059;-75
2021/08/14 06:39:13;;;;;;;8.35;4.72;;;;;;;;;;5033933;28;20026;-75
2021/08/14 06:41:39;;;;;;;8.35;4.38;;;;;;;;;;5033933;28;20430;-74
2021/08/14 06:44:05;;;;;;;8.93;4.97;;;;;;;;;;5033895;28;20084;-75
2021/08/14 06:46:31;;;;;;;8.35;4.95;;;;;;;;;;5033854;28;20026;-75
2021/08/14 06:48:57;;;;;;;7.47;4.30;;;;;;;;;;5034104;28;20025;-75
2021/08/14 06:51:23;;;;;;;8.20;4.35;;;;;;;;;;5034039;28;20509;-74
2021/08/14 06:53:49;;;;;;;7.97;3.53;;;;;;;;;;5033715;28;20135;-75
2021/08/14 06:56:15;;;;;;;5.35;3.50;;;;;;;;;;5033726;28;20523;-75
2021/08/14 06:58:41;;;;;;;5.72;3.35;;;;;;;;;;5033580;28;20454;-75
2021/08/14 07:01:07;;;;;;;5.70;3.58;;;;;;;;;;5033662;28;20057;-75
2021/08/14 07:03:33;;;;;;;6.22;3.72;;;;;;;;;;5033791;28;20027;-75
2021/08/14 07:05:59;;;;;;;5.78;3.30;;;;;;;;;;5033550;28;20103;-75
2021/08/14 07:08:25;;;;;;;7.30;3.90;;;;;;;;;;5033564;28;20067;-75
2021/08/14 07:10:51;;;;;;;6.35;3.90;;;;;;;;;;5033989;28;20108;-75
2021/08/14 07:13:17;;;;;;;5.15;2.95;;;;;;;;;;5033411;28;20021;-75
2021/08/14 07:15:43;;;;;;;6.72;3.22;;;;;;;;;;5033644;28;20033;-75
2021/08/14 07:18:09;;;;;;;4.90;3.22;;;;;;;;;;5033248;28;20030;-75
2021/08/14 07:20:35;;;;;;;5.43;3.35;;;;;;;;;;5032086;28;20048;-75
2021/08/14 07:23:01;;;;;;;8.45;4.10;;;;;;;;;;5033266;28;20473;-76
2021/08/14 07:25:27;;;;;;;9.00;4.07;;;;;;;;;;5033546;28;20029;-75
2021/08/14 07:27:53;;;;;;;8.25;3.75;;;;;;;;;;5033231;28;20028;-74
2021/08/14 07:30:19;;;;;;;9.48;4.60;;;;;;;;;;5033236;28;20033;-76
2021/08/14 07:32:45;;;;;;;7.35;3.95;;;;;;;;;;5033185;28;20044;-75
2021/08/14 07:35:12;;;;;;;9.10;4.47;;;;;;;;;;5033435;28;20029;-75
2021/08/14 07:37:48;;;;;;;7.93;3.70;;;;;;;;;;5033056;28;20021;-76
2021/08/14 07:40:18;;;;;;;6.97;3.78;;;;;;;;;;5033117;28;20029;-75
2021/08/14 07:42:44;;;;;;;6.85;3.88;;;;;;;;;;5033067;28;20048;-75
2021/08/14 07:45:15;;;;;;;7.35;3.78;;;;;;;;;;5033078;28;20026;-76
2021/08/14 07:47:41;;;;;;;7.28;4.38;;;;;;;;;;5033735;28;20498;-75
2021/08/14 07:50:07;;;;;;;8.00;4.22;;;;;;;;;;5037148;28;20108;-76
2021/08/14 07:52:33;;;;;;;9.80;4.90;;;;;;;;;;5037116;28;20018;-76
2021/08/14 07:54:59;;;;;;;8.30;3.72;;;;;;;;;;5037334;28;20036;-75
2021/08/14 07:57:25;;;;;;;7.85;4.30;;;;;;;;;;5037004;28;20393;-75
2021/08/14 07:59:52;;;;;;;8.30;4.40;;;;;;;;;;5037416;28;20033;-76
2021/08/14 08:02:18;;;;;;;6.65;3.60;;;;;;;;;;5037103;28;20025;-76
2021/08/14 08:04:44;;;;;;;7.28;3.85;;;;;;;;;;5036583;28;20060;-76
2021/08/14 08:07:10;;;;;;;7.72;3.80;;;;;;;;;;5036615;28;20045;-75
2021/08/14 08:09:36;;;;;;;9.13;4.38;;;;;;;;;;5037094;28;20033;-76
2021/08/14 08:12:02;;;;;;;8.18;3.83;;;;;;;;;;5036754;28;20022;-75
2021/08/14 08:14:28;;;;;;;8.50;3.58;;;;;;;;;;5036684;28;20035;-76
2021/08/14 08:16:54;;;;;;;7.05;4.10;;;;;;;;;;5036969;28;20029;-76
2021/08/14 08:19:20;;;;;;;7.13;3.80;;;;;;;;;;5036554;28;20033;-76
2021/08/14 08:21:46;;;;;;;8.55;4.22;;;;;;;;;;5036566;28;20532;-76
2021/08/14 08:24:12;;;;;;;7.03;4.05;;;;;;;;;;5036773;28;20025;-75
2021/08/14 08:26:38;;;;;;;7.18;3.67;;;;;;;;;;5036467;28;20017;-76
2021/08/14 08:29:04;;;;;;;9.80;3.88;;;;;;;;;;5036407;28;20470;-75
2021/08/14 08:31:31;;;;;;;6.05;3.30;;;;;;;;;;5036408;28;20024;-76
2021/08/14 08:33:57;;;;;;;7.82;3.05;;;;;;;;;;5036656;28;20048;-76
2021/08/14 08:36:23;;;;;;;6.93;3.22;;;;;;;;;;5035050;28;20026;-75
2021/08/14 08:38:49;;;;;;;12.82;3.47;;;;;;;;;;5036785;28;20030;-76
2021/08/14 08:41:17;;;;;;;10.63;4.50;;;;;;;;;;5036222;28;20025;-76
2021/08/14 08:43:43;;;;;;;10.68;3.83;;;;;;;;;;5036206;28;20017;-76
2021/08/14 08:46:10;;;;;;;8.32;4.07;;;;;;;;;;5036133;28;20432;-76
2021/08/14 08:48:37;;;;;;;9.10;4.93;;;;;;;;;;5036378;28;20101;-77
2021/08/14 08:51:04;;;;;;;25.35;17.48;;;;;;;;;;5036313;28;20095;-76
2021/08/14 08:53:30;;;;;;;8.57;4.32;;;;;;;;;;5036324;28;20030;-75
2021/08/14 08:55:56;;;;;;;12.95;6.90;;;;;;;;;;5035950;28;20482;-76
2021/08/14 08:58:23;;;;;;;11.27;5.88;;;;;;;;;;5035392;28;20108;-76
2021/08/14 09:00:49;;;;;;;8.05;3.60;;;;;;;;;;5036150;28;20100;-76
2021/08/14 09:03:16;;;;;;;9.25;3.67;;;;;;;;;;5035777;28;20438;-76
2021/08/14 09:05:46;;;;;;;8.75;3.47;;;;;;;;;;5035823;28;20025;-77
2021/08/14 09:08:13;;;;;;;8.73;3.92;;;;;;;;;;5036302;28;20108;-76
2021/08/14 09:10:39;;;;;;;10.52;4.00;;;;;;;;;;5035700;28;20033;-76
2021/08/14 09:13:11;;;;;;;9.80;3.83;;;;;;;;;;5035898;28;20064;-76
2021/08/14 09:15:38;;;;;;;5.63;3.22;;;;;;;;;;5035831;28;20060;-76
2021/08/14 09:18:05;;;;;;;8.95;3.85;;;;;;;;;;5035568;28;20025;-77
2021/08/14 09:20:33;;;;;;;7.32;3.53;;;;;;;;;;5034219;28;20052;-76
2021/08/14 09:23:06;;;;;;;7.75;4.07;;;;;;;;;;5035492;28;20078;-76
2021/08/14 09:25:41;;;;;;;11.27;3.67;;;;;;;;;;5035666;28;20025;-76
2021/08/14 09:28:08;;;;;;;6.15;3.50;;;;;;;;;;5035326;28;20032;-75
2021/08/14 09:30:46;;;;;;;7.63;3.33;;;;;;;;;;5035270;28;20505;-76
2021/08/14 09:33:14;;;;;;;7.43;3.30;;;;;;;;;;5035834;28;20104;-76
2021/08/14 09:35:43;;;;;;;6.90;3.47;;;;;;;;;;5035198;28;20025;-77
2021/08/14 09:38:11;;;;;;;6.50;3.50;;;;;;;;;;5035053;28;20026;-76
2021/08/14 09:40:45;;;;;;;7.55;4.03;;;;;;;;;;5035395;28;20479;-75
2021/08/14 09:43:12;;;;;;;6.82;3.45;;;;;;;;;;5035627;28;20025;-76
2021/08/14 09:45:38;;;;;;;6.75;3.35;;;;;;;;;;5035024;28;20482;-76
2021/08/14 09:48:17;;;;;;;7.20;3.75;;;;;;;;;;5034941;28;20037;-76
2021/08/14 09:50:43;;;;;;;11.35;3.65;;;;;;;;;;5035204;28;20029;-77
2021/08/14 09:53:11;;;;;;;7.57;3.17;;;;;;;;;;5034882;28;20048;-76
2021/08/14 09:55:38;;;;;;;8.23;4.03;;;;;;;;;;5034893;28;20033;-76
2021/08/14 09:58:05;;;;;;;6.60;3.40;;;;;;;;;;5033491;28;20508;-76
2021/08/14 10:00:31;;;;;;;7.47;3.38;;;;;;;;;;5034783;28;20100;-76
2021/08/14 10:02:59;;;;;;;7.22;3.42;;;;;;;;;;5034853;28;20128;-76
2021/08/14 10:05:25;;;;;;;8.30;3.35;;;;;;;;;;5033345;28;20450;-77
2021/08/14 10:07:51;;;;;;;6.82;3.30;;;;;;;;;;5034096;28;20045;-77
2021/08/14 10:10:17;;;;;;;8.23;3.30;;;;;;;;;;5033613;28;20040;-76
2021/08/14 10:12:44;;;;;;;5.05;3.10;;;;;;;;;;5034662;28;20528;-77
2021/08/14 10:15:10;;;;;;;7.95;3.65;;;;;;;;;;5034397;28;20029;-77
2021/08/14 10:17:36;;;;;;;6.97;3.00;;;;;;;;;;5034670;28;20120;-77
2021/08/14 10:20:03;;;;;;;7.55;3.72;;;;;;;;;;5034213;28;20159;-82
2021/08/14 10:22:29;;;;;;;6.38;2.80;;;;;;;;;;5034294;28;20155;-77
2021/08/14 10:24:55;;;;;;;6.35;3.50;;;;;;;;;;5032986;28;20113;-79
2021/08/14 10:27:22;;;;;;;6.05;3.25;;;;;;;;;;5034145;28;20025;-84
2021/08/14 10:29:48;;;;;;;5.97;3.00;;;;;;;;;;5034188;28;20026;-79
2021/08/14 10:32:34;;;;;;;5.68;3.05;;;;;;;;;;5034072;28;20034;-79
2021/08/14 10:35:12;;;;;;;6.57;3.10;;;;;;;;;;5033998;28;20029;-76
2021/08/14 10:37:39;;;;;;;7.30;3.10;;;;;;;;;;5032815;28;20195;-77
2021/08/14 10:40:06;;;;;;;7.55;2.70;;;;;;;;;;5032698;28;20547;-77
2021/08/14 10:42:53;;;;;;;6.78;2.90;;;;;;;;;;5033967;28;20508;-76
2021/08/14 10:45:19;;;;;;;10.45;3.42;;;;;;;;;;5034460;28;20037;-78
2021/08/14 10:47:46;;;;;;;4.05;2.58;;;;;;;;;;5034141;28;20061;-77
2021/08/14 10:50:31;;;;;;;5.07;2.70;;;;;;;;;;5034081;28;20026;-77
2021/08/14 10:53:26;;;;;;;5.10;3.00;;;;;;;;;;5033799;28;20018;-76
2021/08/14 10:55:56;;;;;;;3.83;2.60;;;;;;;;;;5020982;28;20115;-78
2021/08/14 10:58:23;;;;;;;6.20;3.10;;;;;;;;;;5034146;28;20037;-74
2021/08/14 11:00:54;;;;;;;5.97;3.28;;;;;;;;;;5033676;28;20040;-77
2021/08/14 11:03:21;;;;;;;4.65;3.00;;;;;;;;;;5032293;28;20167;-76
2021/08/14 11:05:47;;;;;;;5.97;3.20;;;;;;;;;;5033366;28;20028;-76
2021/08/14 11:08:24;;;;;;;5.25;3.22;;;;;;;;;;5032015;28;20052;-77
2021/08/14 11:10:50;;;;;;;6.05;3.17;;;;;;;;;;5034030;28;20049;-75
2021/08/14 11:13:31;;;;;;;5.60;3.42;;;;;;;;;;5033460;28;20104;-76
2021/08/14 11:15:58;;;;;;;8.95;3.38;;;;;;;;;;5033423;28;20049;-77
2021/08/14 11:18:42;;;;;;;5.35;3.22;;;;;;;;;;5033601;28;20517;-75
2021/08/14 11:21:09;;;;;;;5.55;3.38;;;;;;;;;;5031995;28;20032;-76
2021/08/14 11:23:35;;;;;;;7.45;3.58;;;;;;;;;;5033349;28;20028;-75
2021/08/14 11:26:01;;;;;;;5.70;3.47;;;;;;;;;;5033347;28;20025;-76
2021/08/14 11:28:27;;;;;;;6.28;3.50;;;;;;;;;;5033549;28;20501;-77
2021/08/14 11:30:57;;;;;;;6.53;3.50;;;;;;;;;;5033230;28;20033;-76
2021/08/14 11:33:27;;;;;;;5.32;3.42;;;;;;;;;;5033513;28;20030;-77
2021/08/14 11:35:53;;;;;;;;;;;;;;;;;;5033674;28;20021;-76
2021/08/14 11:38:19;;;;;;;6.35;3.42;;;;;;;;;;5033132;28;19919;-77
2021/08/14 11:40:45;;;;;;;5.28;3.28;;;;;;;;;;5033152;28;20025;-77
2021/08/14 11:43:12;;;;;;;6.10;2.97;;;;;;;;;;5033133;28;20021;-75
2021/08/14 11:45:39;;;;;;;7.05;3.40;;;;;;;;;;5033081;28;20025;-77
2021/08/14 11:48:10;;;;;;;5.53;3.22;;;;;;;;;;5033687;28;20048;-77
2021/08/14 11:50:36;;;;;;;6.82;3.55;;;;;;;;;;5033089;28;20489;-76
2021/08/14 11:53:02;;;;;;;7.95;3.97;;;;;;;;;;5033050;28;20026;-76
2021/08/14 11:55:28;;;;;;;5.57;3.30;;;;;;;;;;5033033;28;20030;-77
2021/08/14 11:57:54;;;;;;;6.18;3.50;;;;;;;;;;5032944;28;20539;-75
2021/08/14 12:00:21;;;;;;;6.13;3.42;;;;;;;;;;5032987;28;20021;-76
2021/08/14 12:02:47;;;;;;;5.90;3.00;;;;;;;;;;5033151;28;20028;-77
2021/08/14 12:05:22;;;;;;;6.30;3.35;;;;;;;;;;5031714;28;20454;-76
2021/08/14 12:07:48;;;;;;;5.90;3.20;;;;;;;;;;5032768;28;20038;-75
2021/08/14 12:10:14;;;;;;;6.40;3.38;;;;;;;;;;5033168;28;20425;-76
2021/08/14 12:12:40;;;;;;;7.25;3.20;;;;;;;;;;5032920;28;20045;-77
2021/08/14 12:15:12;;;;;;;6.22;3.28;;;;;;;;;;5032898;28;20023;-75
2021/08/14 12:17:45;;;;;;;5.97;3.35;;;;;;;;;;5033159;28;20104;-76
2021/08/14 12:20:11;;;;;;;7.47;3.53;;;;;;;;;;5033373;28;20099;-77
2021/08/14 12:22:37;;;;;;;7.47;3.10;;;;;;;;;;5033091;28;20033;-78
2021/08/14 12:25:26;;;;;;;6.35;3.65;;;;;;;;;;5032746;28;20049;-76
2021/08/14 12:27:52;;;;;;;6.60;3.50;;;;;;;;;;5033388;28;20022;-77
2021/08/14 12:30:20;;;;;;;8.55;3.67;;;;;;;;;;5032974;28;20018;-76
2021/08/14 12:32:46;;;;;;;6.03;3.60;;;;;;;;;;5032717;28;20021;-75
2021/08/14 12:35:23;;;;;;;6.35;3.45;;;;;;;;;;5035381;28;20025;-77
2021/08/14 12:37:50;;;;;;;5.90;3.30;;;;;;;;;;5036252;28;20021;-76
2021/08/14 12:40:17;;;;;;;4.82;3.20;;;;;;;;;;5036620;28;20470;-75
2021/08/14 12:42:43;;;;;;;7.82;3.45;;;;;;;;;;5036240;28;20071;-77
2021/08/14 12:45:17;;;;;;;5.50;3.60;;;;;;;;;;5036444;28;20040;-76
2021/08/14 12:47:44;;;;;;;5.72;3.35;;;;;;;;;;5036431;28;20378;-77
2021/08/14 12:50:10;;;;;;;6.35;3.58;;;;;;;;;;5036099;28;20033;-75
2021/08/14 12:52:36;;;;;;;6.68;3.65;;;;;;;;;;5036080;28;20561;-74
2021/08/14 12:55:02;;;;;;;5.88;3.40;;;;;;;;;;5036266;28;20366;-74
2021/08/14 12:57:28;;;;;;;6.80;3.70;;;;;;;;;;5036239;28;20100;-74
2021/08/14 12:59:54;;;;;;;6.65;3.65;;;;;;;;;;5036153;28;20147;-75
2021/08/14 13:02:20;;;;;;;6.47;3.50;;;;;;;;;;5035818;28;20021;-76
2021/08/14 13:04:46;;;;;;;6.15;3.35;;;;;;;;;;5035865;28;20029;-81
2021/08/14 13:07:12;;;;;;;6.85;3.10;;;;;;;;;;5035658;28;20125;-80
2021/08/14 13:09:38;;;;;;;7.55;4.10;;;;;;;;;;5035698;28;20095;-79
2021/08/14 13:12:04;;;;;;;6.57;3.53;;;;;;;;;;5035712;28;20108;-80
2021/08/14 13:14:30;;;;;;;5.72;3.58;;;;;;;;;;5036159;28;20025;-78
2021/08/14 13:16:57;;;;;;;6.30;3.55;;;;;;;;;;5035577;28;20067;-80
2021/08/14 13:19:23;;;;;;;4.97;3.15;;;;;;;;;;5035442;28;20033;-80
2021/08/14 13:21:51;;;;;;;5.95;3.50;;;;;;;;;;5035507;28;20025;-74
2021/08/14 13:24:17;;;;;;;7.38;3.50;;;;;;;;;;5035424;28;20032;-80
2021/08/14 13:26:43;;;;;;;4.97;3.15;;;;;;;;;;5035420;28;20025;-78
2021/08/14 13:29:13;;;;;;;6.10;3.53;;;;;;;;;;5035867;28;20497;-78
2021/08/14 13:31:39;;;;;;;8.60;3.45;;;;;;;;;;5035330;28;20127;-78
2021/08/14 13:34:06;;;;;;;6.68;3.17;;;;;;;;;;5035239;28;20056;-78
2021/08/14 13:36:33;;;;;;;6.32;3.22;;;;;;;;;;5035262;28;20040;-74
2021/08/14 13:38:58;;;;;;;5.80;3.22;;;;;;;;;;5033832;28;20444;-74
2021/08/14 13:41:24;;;;;;;6.28;3.15;;;;;;;;;;5035175;28;20022;-74
2021/08/14 13:43:51;;;;;;;7.18;3.70;;;;;;;;;;5035104;28;20056;-78
2021/08/14 13:46:17;;;;;;;5.88;3.45;;;;;;;;;;5033511;28;20028;-75
2021/08/14 13:48:43;;;;;;;7.47;3.45;;;;;;;;;;5034410;28;20117;-74
2021/08/14 13:51:09;;;;;;;7.00;3.33;;;;;;;;;;5033376;28;20100;-74
2021/08/14 13:53:36;;;;;;;7.57;3.75;;;;;;;;;;5033489;28;20033;-75
2021/08/14 13:56:03;;;;;;;6.43;3.10;;;;;;;;;;5035602;28;20022;-76
2021/08/14 13:58:29;;;;;;;5.57;3.40;;;;;;;;;;5034681;28;20057;-76
2021/08/14 14:00:55;;;;;;;6.40;3.47;;;;;;;;;;5034726;28;20079;-77
2021/08/14 14:03:21;;;;;;;6.40;3.22;;;;;;;;;;5034530;28;20112;-77
2021/08/14 14:05:47;;;;;;;5.03;3.17;;;;;;;;;;5034803;28;20057;-74
2021/08/14 14:08:13;;;;;;;7.50;3.53;;;;;;;;;;5034861;28;20359;-76
2021/08/14 14:10:39;;;;;;;7.25;3.30;;;;;;;;;;5034489;28;20043;-79
2021/08/14 14:13:05;;;;;;;7.75;3.65;;;;;;;;;;5034418;28;20029;-75
2021/08/14 14:15:31;;;;;;;7.25;3.50;;;;;;;;;;5034653;28;20108;-74
2021/08/14 14:17:58;;;;;;;6.22;3.40;;;;;;;;;;5034295;28;20516;-76
2021/08/14 14:20:24;;;;;;;6.75;3.15;;;;;;;;;;5034620;28;20025;-73
2021/08/14 14:22:50;;;;;;;5.40;3.42;;;;;;;;;;5034252;28;20028;-74
2021/08/14 14:25:17;;;;;;;6.55;3.47;;;;;;;;;;5034509;28;20025;-76
2021/08/14 14:27:46;;;;;;;9.30;3.53;;;;;;;;;;5034205;28;20021;-76
2021/08/14 14:30:12;;;;;;;5.80;3.50;;;;;;;;;;5034990;28;20025;-76
2021/08/14 14:32:38;;;;;;;5.53;3.17;;;;;;;;;;5034047;28;20263;-74
2021/08/14 14:35:04;;;;;;;6.57;3.22;;;;;;;;;;5034371;28;20029;-74
2021/08/14 14:37:30;;;;;;;5.18;3.20;;;;;;;;;;5034322;28;20104;-75
2021/08/14 14:39:56;;;;;;;5.30;3.28;;;;;;;;;;5033980;28;20109;-74